Time;durP1;ratioP1;P1;durP2;ratioP2;P2;SDS_P1;SDS_P2;PMS_P1;PMS_P2;Temp;Humidity;BMP_temperature;BMP_pressure;BME280_temperature;BME280_humidity;BME280_pressure;Samples;Min_cycle;Max_cycle;Signal;HPM_P1;HPM_P2
2022/08/09 00:00:58;;;;;;;3.65;2.30;;;18.30;99.90;;;;;;5014048;28;20049;-56
2022/08/09 00:03:23;;;;;;;9.82;2.88;;;18.30;99.90;;;;;;5031136;28;20064;-55
2022/08/09 00:05:49;;;;;;;5.95;3.30;;;18.30;99.90;;;;;;5031436;28;20079;-56
2022/08/09 00:08:14;;;;;;;5.00;2.63;;;18.30;99.90;;;;;;5027382;28;20493;-56
2022/08/09 00:10:40;;;;;;;8.02;3.00;;;18.30;99.90;;;;;;5030893;28;20642;-56
2022/08/09 00:13:07;;;;;;;6.75;3.03;;;18.40;99.90;;;;;;5033570;28;20033;-56
2022/08/09 00:15:32;;;;;;;4.47;2.92;;;18.40;99.90;;;;;;5030956;28;20074;-57
2022/08/09 00:17:58;;;;;;;3.65;2.30;;;18.40;99.90;;;;;;5030389;28;20930;-55
2022/08/09 00:20:23;;;;;;;6.60;2.65;;;18.30;99.90;;;;;;5031767;28;20104;-56
2022/08/09 00:22:49;;;;;;;6.20;3.13;;;18.20;99.90;;;;;;5032958;28;20056;-57
2022/08/09 00:25:15;;;;;;;5.38;3.17;;;18.20;99.90;;;;;;5031919;28;20507;-56
2022/08/09 00:27:41;;;;;;;4.68;2.45;;;18.30;99.90;;;;;;5031691;28;20060;-55
2022/08/09 00:30:07;;;;;;;7.82;2.88;;;18.20;99.90;;;;;;5034949;28;20115;-56
2022/08/09 00:32:33;;;;;;;6.80;2.92;;;18.30;99.90;;;;;;5032881;28;20044;-56
2022/08/09 00:34:59;;;;;;;10.00;3.13;;;18.30;99.90;;;;;;5033885;28;20026;-57
2022/08/09 00:37:25;;;;;;;4.18;2.78;;;18.30;99.90;;;;;;5031946;28;20022;-56
2022/08/09 00:39:51;;;;;;;6.65;3.50;;;18.20;99.90;;;;;;5031741;28;20087;-56
2022/08/09 00:42:17;;;;;;;5.63;2.85;;;18.10;99.90;;;;;;5033037;28;20083;-56
2022/08/09 00:44:43;;;;;;;5.80;3.00;;;18.20;99.90;;;;;;5033115;28;20025;-55
2022/08/09 00:47:09;;;;;;;10.13;3.25;;;18.10;99.90;;;;;;5031881;28;20479;-55
2022/08/09 00:49:35;;;;;;;9.38;2.97;;;18.10;99.90;;;;;;5013496;28;20049;-55
2022/08/09 00:52:01;;;;;;;8.30;3.22;;;18.10;99.90;;;;;;5015005;28;20108;-56
2022/08/09 00:54:27;;;;;;;6.35;2.90;;;18.10;99.90;;;;;;5028767;28;20149;-54
2022/08/09 00:56:52;;;;;;;8.88;3.58;;;18.10;99.90;;;;;;5032440;28;20565;-56
2022/08/09 00:59:18;;;;;;;4.10;2.78;;;17.90;99.90;;;;;;5030108;28;20215;-56
2022/08/09 01:01:46;;;;;;;15.98;2.97;;;17.80;99.90;;;;;;5029066;28;20513;-54
2022/08/09 01:04:37;;;;;;;6.65;3.13;;;17.70;99.90;;;;;;5030792;28;20021;-55
2022/08/09 01:07:42;;;;;;;10.30;3.53;;;17.70;99.90;;;;;;5028497;28;20026;-56
2022/08/09 01:10:16;;;;;;;;;;;17.60;99.90;;;;;;5031511;28;20072;-54
2022/08/09 01:12:52;;;;;;;6.55;2.85;;;17.50;99.90;;;;;;5031017;28;19915;-56
2022/08/09 01:15:23;;;;;;;6.07;3.15;;;17.50;99.90;;;;;;5030842;28;20064;-54
2022/08/09 01:17:59;;;;;;;8.13;3.35;;;17.60;99.90;;;;;;5030204;28;20061;-56
2022/08/09 01:20:55;;;;;;;7.22;2.72;;;17.50;99.90;;;;;;5030694;28;20032;-55
2022/08/09 01:23:51;;;;;;;12.40;3.50;;;17.50;99.90;;;;;;5032566;28;20399;-54
2022/08/09 01:26:35;;;;;;;3.88;2.80;;;17.60;99.90;;;;;;5031081;28;20092;-56
2022/08/09 01:29:02;;;;;;;4.88;3.22;;;17.60;99.90;;;;;;5032458;28;20426;-57
2022/08/09 01:31:30;;;;;;;7.03;3.08;;;17.60;99.90;;;;;;5031345;28;20051;-55
2022/08/09 01:33:58;;;;;;;6.30;3.25;;;17.60;99.90;;;;;;5030285;28;20029;-54
2022/08/09 01:36:26;;;;;;;5.63;2.78;;;17.60;99.90;;;;;;5034205;28;20568;-53
2022/08/09 01:38:53;;;;;;;6.35;2.92;;;17.60;99.90;;;;;;5033083;28;20510;-56
2022/08/09 01:41:28;;;;;;;9.40;3.13;;;17.60;99.90;;;;;;5030222;28;20033;-56
2022/08/09 01:43:57;;;;;;;6.90;2.90;;;17.60;99.90;;;;;;5029598;28;20075;-56
2022/08/09 01:46:23;;;;;;;5.32;2.65;;;17.60;99.90;;;;;;5030721;28;20022;-55
2022/08/09 01:48:51;;;;;;;5.75;2.88;;;17.60;99.90;;;;;;5028356;28;20104;-56
2022/08/09 01:51:17;;;;;;;8.18;3.22;;;17.60;99.90;;;;;;5030220;28;20022;-56
2022/08/09 01:53:44;;;;;;;6.68;3.35;;;17.50;99.90;;;;;;5029217;28;20017;-55
2022/08/09 01:56:12;;;;;;;10.65;3.60;;;17.40;99.90;;;;;;5030772;28;20400;-56
2022/08/09 01:58:41;;;;;;;5.05;3.10;;;17.30;99.90;;;;;;5029401;28;20507;-55
2022/08/09 02:01:08;;;;;;;5.78;3.20;;;17.30;99.90;;;;;;5030281;28;20036;-55
2022/08/09 02:03:35;;;;;;;5.93;3.38;;;17.30;99.90;;;;;;5028730;28;20029;-55
2022/08/09 02:06:03;;;;;;;5.80;3.40;;;17.30;99.90;;;;;;5028732;28;20033;-56
2022/08/09 02:08:31;;;;;;;6.32;3.03;;;17.30;99.90;;;;;;5030806;28;20033;-56
2022/08/09 02:11:01;;;;;;;7.72;3.28;;;17.30;99.90;;;;;;5028890;28;20029;-56
2022/08/09 02:13:29;;;;;;;4.63;2.72;;;17.30;99.90;;;;;;5031464;28;20453;-56
2022/08/09 02:15:56;;;;;;;6.60;3.00;;;17.30;99.90;;;;;;5029782;28;20083;-56
2022/08/09 02:18:25;;;;;;;6.18;3.17;;;17.30;99.90;;;;;;5031683;28;20033;-54
2022/08/09 02:20:56;;;;;;;6.57;3.72;;;17.30;99.90;;;;;;5030279;28;20057;-56
2022/08/09 02:23:31;;;;;;;3.47;3.10;;;17.30;99.90;;;;;;5013234;28;20030;-54
2022/08/09 02:25:59;;;;;;;7.50;3.55;;;17.30;99.90;;;;;;5026204;28;20399;-54
2022/08/09 02:28:36;;;;;;;5.82;3.60;;;17.20;99.90;;;;;;5029640;28;20116;-52
2022/08/09 02:31:09;;;;;;;8.57;3.83;;;17.00;99.90;;;;;;5027422;28;20028;-55
2022/08/09 02:33:38;;;;;;;6.77;3.50;;;16.80;99.90;;;;;;5031004;28;20042;-54
2022/08/09 02:36:10;;;;;;;8.52;3.47;;;16.90;99.90;;;;;;5027165;28;20025;-54
2022/08/09 02:38:49;;;;;;;8.05;3.35;;;16.70;99.90;;;;;;5030791;28;20040;-55
2022/08/09 02:41:25;;;;;;;4.55;3.42;;;16.50;99.90;;;;;;5030027;28;20048;-57
2022/08/09 02:43:53;;;;;;;8.82;4.07;;;16.40;99.90;;;;;;5030448;28;20766;-54
2022/08/09 02:46:21;;;;;;;8.32;3.85;;;16.30;99.90;;;;;;5029594;28;20029;-57
2022/08/09 02:48:48;;;;;;;8.55;4.40;;;16.20;99.90;;;;;;5028217;28;20052;-55
2022/08/09 02:51:16;;;;;;;4.72;3.90;;;16.20;99.90;;;;;;5030089;28;20021;-54
2022/08/09 02:53:47;;;;;;;5.65;3.88;;;16.10;99.90;;;;;;5028985;28;20153;-56
2022/08/09 02:56:15;;;;;;;5.35;3.60;;;16.10;99.90;;;;;;5030450;28;20075;-55
2022/08/09 02:58:43;;;;;;;6.00;3.53;;;16.00;99.90;;;;;;5028063;28;20056;-54
2022/08/09 03:01:09;;;;;;;5.10;3.53;;;16.10;99.90;;;;;;5029775;28;20622;-54
2022/08/09 03:03:36;;;;;;;11.10;4.10;;;16.10;99.90;;;;;;5027348;28;20442;-55
2022/08/09 03:06:05;;;;;;;7.10;4.10;;;16.00;99.90;;;;;;5050311;22;20033;-57
2022/08/09 03:08:32;;;;;;;9.18;4.78;;;16.00;99.90;;;;;;5024675;28;20029;-58
2022/08/09 03:10:59;;;;;;;8.68;4.38;;;15.80;99.90;;;;;;5022092;28;20033;-57
2022/08/09 03:13:26;;;;;;;7.53;4.68;;;15.80;99.90;;;;;;5028455;28;20152;-56
2022/08/09 03:15:53;;;;;;;11.02;4.47;;;15.70;99.90;;;;;;5025279;28;20372;-54
2022/08/09 03:18:20;;;;;;;10.23;3.95;;;15.70;99.90;;;;;;5029396;28;20021;-55
2022/08/09 03:20:47;;;;;;;11.52;4.43;;;15.70;99.90;;;;;;5025580;28;20032;-56
2022/08/09 03:23:13;;;;;;;6.22;3.88;;;15.90;99.90;;;;;;5023172;28;20041;-53
2022/08/09 03:25:41;;;;;;;7.25;3.97;;;16.00;99.90;;;;;;5026834;28;20022;-53
2022/08/09 03:28:07;;;;;;;9.45;4.63;;;16.10;99.90;;;;;;5027542;28;20033;-56
2022/08/09 03:30:33;;;;;;;5.35;3.63;;;16.20;99.90;;;;;;5025260;28;20487;-53
2022/08/09 03:33:01;;;;;;;4.93;3.45;;;16.20;99.90;;;;;;5018489;28;20033;-54
2022/08/09 03:35:26;;;;;;;9.18;4.35;;;16.20;99.90;;;;;;5018377;28;20025;-57
2022/08/09 03:37:52;;;;;;;5.68;3.80;;;16.20;99.90;;;;;;5022803;28;20480;-57
2022/08/09 03:40:18;;;;;;;8.93;4.22;;;16.10;99.90;;;;;;5026079;28;20037;-55
2022/08/09 03:42:44;;;;;;;5.18;3.55;;;16.00;99.90;;;;;;5026955;28;20030;-53
2022/08/09 03:45:10;;;;;;;7.68;3.97;;;15.90;99.90;;;;;;5024518;28;20022;-56
2022/08/09 03:47:36;;;;;;;7.70;3.67;;;15.70;99.90;;;;;;5022541;28;20033;-54
2022/08/09 03:50:04;;;;;;;11.02;4.07;;;15.70;99.90;;;;;;5007015;28;20392;-57
2022/08/09 03:52:32;;;;;;;5.85;3.95;;;15.60;99.90;;;;;;5009043;28;20502;-56
2022/08/09 03:55:01;;;;;;;7.82;4.03;;;15.50;99.90;;;;;;5024085;28;20088;-56
2022/08/09 03:57:28;;;;;;;7.22;4.65;;;15.50;99.90;;;;;;5020149;28;20038;-56
2022/08/09 03:59:53;;;;;;;9.80;4.35;;;15.50;99.90;;;;;;5023077;28;20025;-56
2022/08/09 04:02:20;;;;;;;6.80;4.00;;;15.50;99.90;;;;;;5029273;28;20903;-56
2022/08/09 04:04:46;;;;;;;4.90;4.35;;;15.60;99.90;;;;;;5024040;28;20496;-56
2022/08/09 04:07:12;;;;;;;5.30;3.92;;;15.70;99.90;;;;;;5024961;28;20034;-56
2022/08/09 04:09:37;;;;;;;6.95;4.10;;;15.70;99.90;;;;;;5021565;28;20033;-57
2022/08/09 04:12:09;;;;;;;5.40;3.70;;;15.70;99.90;;;;;;5020467;28;20504;-54
2022/08/09 04:14:39;;;;;;;5.40;3.83;;;15.70;99.90;;;;;;5022973;28;20502;-57
2022/08/09 04:17:05;;;;;;;12.77;4.32;;;15.60;99.90;;;;;;5024918;28;20386;-56
2022/08/09 04:19:31;;;;;;;8.75;3.88;;;15.40;99.90;;;;;;5028295;28;20091;-56
2022/08/09 04:21:57;;;;;;;7.03;4.43;;;15.40;99.90;;;;;;5025474;28;20542;-55
2022/08/09 04:24:24;;;;;;;8.38;4.20;;;15.40;99.90;;;;;;5025387;28;20029;-55
2022/08/09 04:26:50;;;;;;;8.40;3.92;;;15.30;99.90;;;;;;5022300;28;20030;-58
2022/08/09 04:29:16;;;;;;;7.55;5.20;;;15.30;99.90;;;;;;5023923;28;20057;-56
2022/08/09 04:31:41;;;;;;;9.27;3.88;;;15.30;99.90;;;;;;5024877;28;20045;-55
2022/08/09 04:34:07;;;;;;;10.60;3.85;;;15.20;99.90;;;;;;5026316;28;20517;-56
2022/08/09 04:36:32;;;;;;;8.52;4.15;;;15.20;99.90;;;;;;5025064;28;20100;-55
2022/08/09 04:39:01;;;;;;;12.32;4.95;;;15.20;99.90;;;;;;5024058;28;20556;-58
2022/08/09 04:41:27;;;;;;;7.88;3.85;;;15.20;99.90;;;;;;5023585;28;20022;-58
2022/08/09 04:43:54;;;;;;;7.80;4.05;;;15.20;99.90;;;;;;5024934;28;20029;-57
2022/08/09 04:46:20;;;;;;;8.10;3.83;;;15.20;99.90;;;;;;5024756;28;20022;-57
2022/08/09 04:48:45;;;;;;;12.23;4.53;;;15.20;99.90;;;;;;5026283;28;20038;-57
2022/08/09 04:51:11;;;;;;;9.38;4.13;;;15.20;99.90;;;;;;5024741;28;20033;-58
2022/08/09 04:53:38;;;;;;;7.18;4.28;;;15.20;99.90;;;;;;5025225;28;20022;-58
2022/08/09 04:56:03;;;;;;;5.53;3.85;;;15.20;99.90;;;;;;5028325;28;20105;-55
2022/08/09 04:58:29;;;;;;;7.13;3.78;;;15.30;99.90;;;;;;5026241;28;20458;-54
2022/08/09 05:00:55;;;;;;;9.07;4.18;;;15.30;99.90;;;;;;5026597;28;20555;-54
2022/08/09 05:03:22;;;;;;;10.10;3.97;;;15.40;99.90;;;;;;5027302;28;20112;-57
2022/08/09 05:05:48;;;;;;;5.95;4.50;;;15.50;99.90;;;;;;5022967;28;20103;-56
2022/08/09 05:08:13;;;;;;;10.23;4.10;;;15.50;99.90;;;;;;5027456;28;20060;-53
2022/08/09 05:10:39;;;;;;;10.13;3.78;;;15.50;99.90;;;;;;5027924;28;20432;-56
2022/08/09 05:13:05;;;;;;;10.25;4.18;;;15.60;99.90;;;;;;5026871;28;20021;-54
2022/08/09 05:15:30;;;;;;;9.02;4.40;;;15.70;99.90;;;;;;5023977;28;20076;-57
2022/08/09 05:17:56;;;;;;;8.88;4.20;;;15.80;99.90;;;;;;5026727;28;20066;-55
2022/08/09 05:20:24;;;;;;;9.65;4.28;;;15.90;99.90;;;;;;5026688;28;20029;-54
2022/08/09 05:22:52;;;;;;;6.82;4.22;;;16.00;99.90;;;;;;5026346;28;20495;-58
2022/08/09 05:25:21;;;;;;;8.27;3.85;;;16.00;99.90;;;;;;5028078;28;20112;-57
2022/08/09 05:27:47;;;;;;;7.40;4.00;;;16.10;99.90;;;;;;5025607;28;20025;-56
2022/08/09 05:30:13;;;;;;;10.25;3.85;;;16.10;99.90;;;;;;5022718;28;20029;-56
2022/08/09 05:32:39;;;;;;;10.82;3.85;;;16.10;99.90;;;;;;5028330;28;20028;-57
2022/08/09 05:35:05;;;;;;;5.28;3.47;;;16.20;99.90;;;;;;5026671;28;20057;-56
2022/08/09 05:37:31;;;;;;;9.45;4.18;;;16.30;99.90;;;;;;5025200;28;20037;-57
2022/08/09 05:39:57;;;;;;;5.93;3.53;;;16.40;99.90;;;;;;5023627;28;20056;-57
2022/08/09 05:42:24;;;;;;;7.28;3.30;;;16.50;99.90;;;;;;5021914;28;20056;-53
2022/08/09 05:44:54;;;;;;;7.65;3.80;;;16.70;99.90;;;;;;5028771;28;20029;-55
2022/08/09 05:47:22;;;;;;;12.40;3.83;;;16.80;99.90;;;;;;5025302;28;20487;-58
2022/08/09 05:49:47;;;;;;;8.30;3.95;;;16.90;99.90;;;;;;5021256;28;20233;-58
2022/08/09 05:52:13;;;;;;;5.22;3.50;;;17.00;99.90;;;;;;5026467;28;20541;-56
2022/08/09 05:54:39;;;;;;;9.90;3.83;;;17.10;99.90;;;;;;5025669;28;20025;-56
2022/08/09 05:57:05;;;;;;;7.82;3.45;;;17.20;99.90;;;;;;5025440;28;20404;-55
2022/08/09 05:59:31;;;;;;;10.05;3.25;;;17.30;99.90;;;;;;5021577;28;20048;-53
2022/08/09 06:01:57;;;;;;;7.50;4.20;;;17.30;99.90;;;;;;5022811;28;20411;-55
2022/08/09 06:04:22;;;;;;;7.90;3.28;;;17.40;99.90;;;;;;5021690;28;20021;-54
2022/08/09 06:06:48;;;;;;;8.23;3.28;;;17.50;99.90;;;;;;5026534;28;20041;-55
2022/08/09 06:09:13;;;;;;;6.10;4.28;;;17.60;99.90;;;;;;5028488;28;20026;-57
2022/08/09 06:11:39;;;;;;;8.95;3.38;;;17.60;99.90;;;;;;5027507;28;20017;-56
2022/08/09 06:14:04;;;;;;;6.60;3.35;;;17.70;99.90;;;;;;5030674;28;20443;-52
2022/08/09 06:16:30;;;;;;;10.40;3.63;;;17.80;99.90;;;;;;5028015;28;20033;-57
2022/08/09 06:18:56;;;;;;;11.30;4.13;;;17.80;99.90;;;;;;5025746;28;20057;-57
2022/08/09 06:21:21;;;;;;;7.93;3.35;;;17.90;99.90;;;;;;5023879;28;20079;-55
2022/08/09 06:23:47;;;;;;;8.18;3.80;;;18.00;99.90;;;;;;5026320;28;20547;-56
2022/08/09 06:26:16;;;;;;;13.85;3.88;;;18.00;99.90;;;;;;5027330;28;20479;-52
2022/08/09 06:28:42;;;;;;;9.38;3.85;;;18.10;99.90;;;;;;5026547;28;20064;-52
2022/08/09 06:31:07;;;;;;;11.52;4.25;;;18.20;99.90;;;;;;5024409;28;20061;-55
2022/08/09 06:33:33;;;;;;;8.30;3.45;;;18.30;99.90;;;;;;5025546;28;20029;-55
2022/08/09 06:35:59;;;;;;;11.65;4.32;;;18.30;99.90;;;;;;5019786;28;20037;-56
2022/08/09 06:38:25;;;;;;;6.95;3.15;;;18.40;99.90;;;;;;5026270;28;20025;-56
2022/08/09 06:40:50;;;;;;;12.15;3.88;;;18.50;99.90;;;;;;5024651;28;20368;-56
2022/08/09 06:43:16;;;;;;;7.88;3.47;;;18.50;99.90;;;;;;5028057;28;20431;-55
2022/08/09 06:45:41;;;;;;;10.52;3.60;;;18.60;99.90;;;;;;5028709;28;20037;-55
2022/08/09 06:48:07;;;;;;;6.57;2.83;;;18.80;99.90;;;;;;5021689;28;20041;-55
2022/08/09 06:50:32;;;;;;;8.00;2.95;;;18.90;99.90;;;;;;5018278;28;20182;-53
2022/08/09 06:53:00;;;;;;;6.72;3.40;;;19.00;99.90;;;;;;5024087;28;20083;-56
2022/08/09 06:55:30;;;;;;;8.52;3.38;;;19.00;99.90;;;;;;5023390;28;20021;-57
2022/08/09 06:57:56;;;;;;;5.55;3.00;;;19.10;99.90;;;;;;5026082;28;20555;-54
2022/08/09 07:00:22;;;;;;;9.32;3.30;;;19.20;99.90;;;;;;5025189;28;20163;-55
2022/08/09 07:02:47;;;;;;;5.45;3.17;;;19.20;99.90;;;;;;5026969;28;20029;-52
2022/08/09 07:05:13;;;;;;;4.53;2.80;;;19.30;99.90;;;;;;5020726;28;20022;-56
2022/08/09 07:07:38;;;;;;;6.13;2.75;;;19.30;99.90;;;;;;5020774;28;20167;-53
2022/08/09 07:10:04;;;;;;;4.10;2.60;;;19.40;99.90;;;;;;5025184;28;20112;-56
2022/08/09 07:12:30;;;;;;;6.97;2.42;;;19.50;99.90;;;;;;5028565;28;20172;-57
2022/08/09 07:14:55;;;;;;;5.97;3.72;;;19.50;99.90;;;;;;5021578;28;20499;-57
2022/08/09 07:17:21;;;;;;;8.10;2.67;;;19.60;99.90;;;;;;5022487;28;20030;-57
2022/08/09 07:19:47;;;;;;;5.85;2.67;;;19.60;99.90;;;;;;5020996;28;20030;-54
2022/08/09 07:22:12;;;;;;;11.15;2.70;;;19.60;99.90;;;;;;5021037;28;20033;-56
2022/08/09 07:24:38;;;;;;;6.43;3.15;;;19.70;99.90;;;;;;5020834;28;20490;-57
2022/08/09 07:27:04;;;;;;;9.95;2.72;;;19.80;99.90;;;;;;5020496;28;20037;-57
2022/08/09 07:29:29;;;;;;;5.53;2.67;;;19.80;99.90;;;;;;5020773;28;20115;-57
2022/08/09 07:31:56;;;;;;;6.78;2.75;;;19.90;99.90;;;;;;5018337;28;20420;-56
2022/08/09 07:34:22;;;;;;;4.93;2.80;;;19.90;99.90;;;;;;5020084;28;20097;-56
2022/08/09 07:36:48;;;;;;;11.73;3.08;;;19.90;99.90;;;;;;5019128;28;20026;-57
2022/08/09 07:39:14;;;;;;;6.20;3.03;;;20.00;99.90;;;;;;5019687;28;20024;-54
2022/08/09 07:41:39;;;;;;;5.63;3.10;;;20.10;99.90;;;;;;5017874;28;20022;-56
2022/08/09 07:44:05;;;;;;;7.63;2.70;;;20.20;99.90;;;;;;5020292;28;20504;-56
2022/08/09 07:46:30;;;;;;;7.97;2.75;;;20.20;99.90;;;;;;5019040;28;20044;-54
2022/08/09 07:48:56;;;;;;;5.43;2.95;;;20.20;99.90;;;;;;5018594;28;20042;-54
2022/08/09 07:51:22;;;;;;;7.28;3.30;;;20.20;99.90;;;;;;5022238;28;20032;-56
2022/08/09 07:53:50;;;;;;;8.95;3.85;;;20.30;99.90;;;;;;5019726;28;20518;-55
2022/08/09 07:56:15;;;;;;;6.60;2.97;;;20.40;99.90;;;;;;5027520;28;20371;-54
2022/08/09 07:58:41;;;;;;;4.65;3.05;;;20.50;99.90;;;;;;5023324;28;20044;-57
2022/08/09 08:01:07;;;;;;;3.80;2.65;;;20.50;99.90;;;;;;5020433;28;20022;-62
2022/08/09 08:03:32;;;;;;;5.47;2.90;;;20.60;99.90;;;;;;5010033;28;20483;-61
2022/08/09 08:05:58;;;;;;;9.73;3.33;;;20.60;99.90;;;;;;5025251;28;20133;-62
2022/08/09 08:08:24;;;;;;;6.88;2.45;;;20.80;99.90;;;;;;5026360;28;20061;-61
2022/08/09 08:10:50;;;;;;;6.47;3.22;;;20.90;99.90;;;;;;5018888;28;20041;-62
2022/08/09 08:13:15;;;;;;;4.13;2.65;;;21.00;99.90;;;;;;5029051;28;20026;-61
2022/08/09 08:15:41;;;;;;;8.00;3.10;;;21.10;99.90;;;;;;5024437;28;20104;-61
2022/08/09 08:18:06;;;;;;;7.05;3.25;;;21.10;99.90;;;;;;5028910;28;20561;-62
2022/08/09 08:20:32;;;;;;;7.85;3.13;;;21.20;99.90;;;;;;5033516;28;20057;-62
2022/08/09 08:22:59;;;;;;;8.60;2.67;;;21.20;99.90;;;;;;5031195;28;20116;-62
2022/08/09 08:25:25;;;;;;;3.92;2.60;;;21.30;99.90;;;;;;5025790;28;20087;-62
2022/08/09 08:27:51;;;;;;;6.95;2.83;;;21.30;99.90;;;;;;5024216;28;20022;-63
2022/08/09 08:30:17;;;;;;;4.97;2.40;;;21.40;99.90;;;;;;5030167;28;20036;-62
2022/08/09 08:32:43;;;;;;;3.85;2.83;;;21.50;99.90;;;;;;5019153;28;20391;-63
2022/08/09 08:35:09;;;;;;;9.27;3.17;;;21.60;99.90;;;;;;5025049;28;20044;-62
2022/08/09 08:37:35;;;;;;;5.95;2.80;;;21.70;99.90;;;;;;5031907;28;20033;-62
2022/08/09 08:40:02;;;;;;;5.90;2.92;;;21.80;99.90;;;;;;5023384;28;20038;-62
2022/08/09 08:42:29;;;;;;;10.77;3.22;;;22.00;99.90;;;;;;5023225;28;20033;-62
2022/08/09 08:44:58;;;;;;;10.50;3.35;;;22.00;99.90;;;;;;5028030;28;20116;-62
2022/08/09 08:47:25;;;;;;;6.97;3.90;;;22.10;99.90;;;;;;5028281;28;20024;-63
2022/08/09 08:49:52;;;;;;;9.52;3.35;;;22.20;99.90;;;;;;5028235;28;20017;-63
2022/08/09 08:52:24;;;;;;;7.40;3.97;;;22.30;99.90;;;;;;5028706;28;20056;-63
2022/08/09 08:54:54;;;;;;;13.13;4.10;;;22.40;99.90;;;;;;5029626;28;20067;-63
2022/08/09 08:57:20;;;;;;;7.03;2.90;;;22.50;99.90;;;;;;5032466;28;20033;-62
2022/08/09 08:59:47;;;;;;;5.07;3.03;;;22.50;99.90;;;;;;5031934;28;20430;-64
2022/08/09 09:02:22;;;;;;;6.05;3.53;;;22.60;99.90;;;;;;5026788;28;20041;-63
2022/08/09 09:04:50;;;;;;;5.05;2.88;;;22.70;99.90;;;;;;5032612;28;20553;-63
2022/08/09 09:07:16;;;;;;;8.07;3.30;;;22.80;99.90;;;;;;5056356;22;20728;-60
2022/08/09 09:09:46;;;;;;;8.50;3.45;;;22.90;99.90;;;;;;5035726;28;20384;-59
2022/08/09 09:12:17;;;;;;;4.85;3.00;;;23.10;99.90;;;;;;5028996;28;20067;-59
2022/08/09 09:14:44;;;;;;;11.70;3.20;;;23.20;99.90;;;;;;5032768;28;20034;-57
2022/08/09 09:17:10;;;;;;;7.03;3.03;;;23.40;99.90;;;;;;5039931;28;20021;-57
2022/08/09 09:19:36;;;;;;;7.15;3.08;;;23.60;99.90;;;;;;5033984;28;20044;-58
2022/08/09 09:22:06;;;;;;;10.95;2.70;;;23.70;99.90;;;;;;5033716;28;20033;-59
2022/08/09 09:24:35;;;;;;;7.80;3.63;;;23.80;99.90;;;;;;5033363;28;20096;-59
2022/08/09 09:27:02;;;;;;;5.43;3.13;;;23.90;99.90;;;;;;5032032;28;20060;-60
2022/08/09 09:29:30;;;;;;;5.55;2.97;;;23.90;99.90;;;;;;5029327;28;20025;-59
2022/08/09 09:31:56;;;;;;;6.95;3.28;;;24.00;99.90;;;;;;5030130;28;20025;-58
2022/08/09 09:34:22;;;;;;;8.40;3.55;;;24.10;99.90;;;;;;5031841;28;20100;-59
2022/08/09 09:36:48;;;;;;;11.52;2.92;;;24.20;99.90;;;;;;5038712;28;20092;-59
2022/08/09 09:39:13;;;;;;;10.13;2.65;;;24.30;99.90;;;;;;5033567;28;20044;-60
2022/08/09 09:41:39;;;;;;;4.28;2.63;;;24.50;99.90;;;;;;5027091;28;20037;-57
2022/08/09 09:44:06;;;;;;;12.02;3.42;;;24.60;99.90;;;;;;5032740;28;20023;-59
2022/08/09 09:46:34;;;;;;;7.90;2.65;;;24.80;99.90;;;;;;5029319;28;20025;-58
2022/08/09 09:49:08;;;;;;;8.00;2.50;;;25.00;99.90;;;;;;5037909;28;20478;-57
2022/08/09 09:51:36;;;;;;;6.80;2.58;;;25.10;99.90;;;;;;5034006;28;20040;-56
2022/08/09 09:54:18;;;;;;;4.63;2.88;;;25.30;99.90;;;;;;5040985;28;20029;-59
2022/08/09 09:56:45;;;;;;;4.03;2.75;;;25.50;99.90;;;;;;5031290;28;20033;-56
2022/08/09 09:59:14;;;;;;;11.50;2.83;;;25.70;99.90;;;;;;5026804;28;20438;-59
2022/08/09 10:01:43;;;;;;;11.27;2.80;;;25.80;99.90;;;;;;5029236;28;20088;-59
2022/08/09 10:04:13;;;;;;;7.45;2.92;;;25.90;99.90;;;;;;5032853;28;20087;-60
2022/08/09 10:06:41;;;;;;;7.90;3.25;;;26.10;99.90;;;;;;5027884;28;20093;-59
2022/08/09 10:09:07;;;;;;;5.40;2.55;;;26.30;99.90;;;;;;5026010;28;20907;-58
2022/08/09 10:11:34;;;;;;;7.72;2.33;;;26.30;99.90;;;;;;5033731;28;20013;-58
2022/08/09 10:14:02;;;;;;;5.00;2.42;;;26.40;99.90;;;;;;5031126;28;20030;-60
2022/08/09 10:16:29;;;;;;;4.93;3.42;;;26.50;99.90;;;;;;5019329;28;20044;-59
2022/08/09 10:18:56;;;;;;;7.57;2.78;;;26.60;99.90;;;;;;5030966;28;20052;-60
2022/08/09 10:21:22;;;;;;;4.45;2.67;;;26.70;99.90;;;;;;5024485;28;20057;-58
2022/08/09 10:23:49;;;;;;;2.85;2.40;;;26.90;99.90;;;;;;5027485;28;20026;-60
2022/08/09 10:26:15;;;;;;;13.57;2.88;;;27.30;99.90;;;;;;5025503;28;20039;-59
2022/08/09 10:28:42;;;;;;;12.60;3.45;;;27.50;99.90;;;;;;5030059;28;20033;-60
2022/08/09 10:31:10;;;;;;;5.60;3.05;;;27.60;99.90;;;;;;5022417;28;20024;-59
2022/08/09 10:33:36;;;;;;;7.88;3.20;;;27.70;99.90;;;;;;5027112;28;20502;-60
2022/08/09 10:36:04;;;;;;;5.25;2.60;;;27.90;99.90;;;;;;5023701;28;20029;-59
2022/08/09 10:38:30;;;;;;;8.90;3.00;;;27.90;99.90;;;;;;5022076;28;20491;-60
2022/08/09 10:40:56;;;;;;;3.80;2.55;;;28.20;99.90;;;;;;5024193;28;20036;-59
2022/08/09 10:43:22;;;;;;;5.47;3.20;;;28.30;99.90;;;;;;5025524;28;20029;-60
2022/08/09 10:45:48;;;;;;;4.28;2.80;;;28.30;99.90;;;;;;5026511;28;20029;-57
2022/08/09 10:48:33;;;;;;;4.68;2.55;;;27.80;99.90;;;;;;5016091;28;20368;-58
2022/08/09 10:51:20;;;;;;;5.38;2.75;;;27.70;99.90;;;;;;5019696;28;20106;-58
2022/08/09 10:53:58;;;;;;;3.47;2.80;;;27.90;99.90;;;;;;5020323;28;20026;-57
2022/08/09 10:56:32;;;;;;;8.57;2.33;;;28.30;99.90;;;;;;5018536;28;20466;-58
2022/08/09 10:58:59;;;;;;;4.90;3.13;;;28.40;99.90;;;;;;5030242;28;20449;-59
2022/08/09 11:01:30;;;;;;;4.57;3.10;;;28.50;99.90;;;;;;5031640;28;20084;-58
2022/08/09 11:04:14;;;;;;;7.60;2.67;;;28.60;99.90;;;;;;5022279;28;20029;-58
2022/08/09 11:06:42;;;;;;;3.17;2.63;;;29.00;99.90;;;;;;5020910;28;20060;-58
2022/08/09 11:09:09;;;;;;;3.63;2.53;;;29.10;99.90;;;;;;5025114;28;20025;-58
2022/08/09 11:12:03;;;;;;;5.07;2.72;;;28.90;99.90;;;;;;5027517;28;20402;-58
2022/08/09 11:14:34;;;;;;;5.57;2.60;;;29.00;99.90;;;;;;5026094;28;20025;-58
2022/08/09 11:17:15;;;;;;;6.35;2.40;;;29.00;99.90;;;;;;5016802;28;20041;-59
2022/08/09 11:19:58;;;;;;;8.13;2.90;;;29.30;98.80;;;;;;5021904;28;20104;-58
2022/08/09 11:22:44;;;;;;;5.82;2.28;;;29.30;98.40;;;;;;5028786;28;20065;-58
2022/08/09 11:25:15;;;;;;;4.05;2.50;;;29.20;98.40;;;;;;5016832;28;20080;-59
2022/08/09 11:27:43;;;;;;;4.47;2.47;;;29.20;98.70;;;;;;5021521;28;20066;-59
2022/08/09 11:30:13;;;;;;;10.65;3.17;;;29.30;98.60;;;;;;5028665;28;20021;-58
2022/08/09 11:32:50;;;;;;;5.85;2.78;;;29.20;99.20;;;;;;5027893;28;20424;-59
2022/08/09 11:35:27;;;;;;;10.93;2.85;;;29.20;98.10;;;;;;5029806;28;20029;-58
2022/08/09 11:37:56;;;;;;;7.68;2.55;;;29.30;98.50;;;;;;5024908;28;20399;-59
2022/08/09 11:40:30;;;;;;;3.15;2.55;;;29.30;98.30;;;;;;5032326;28;20487;-60
2022/08/09 11:42:59;;;;;;;9.00;2.38;;;29.30;98.40;;;;;;5024722;28;20076;-59
2022/08/09 11:45:42;;;;;;;4.63;2.10;;;29.40;97.90;;;;;;5003438;28;20108;-59
2022/08/09 11:48:10;;;;;;;4.07;2.50;;;29.40;98.10;;;;;;5020758;28;20028;-59
2022/08/09 11:50:56;;;;;;;7.05;2.45;;;29.70;97.60;;;;;;5021436;28;20025;-58
2022/08/09 11:53:22;;;;;;;3.70;2.67;;;29.50;97.60;;;;;;5008274;28;20041;-56
2022/08/09 11:55:50;;;;;;;6.85;2.78;;;29.90;96.90;;;;;;5026796;28;20029;-58
2022/08/09 11:58:15;;;;;;;3.85;2.97;;;29.90;96.90;;;;;;5025743;28;20028;-58
2022/08/09 12:00:55;;;;;;;4.93;2.30;;;29.90;97.60;;;;;;5028910;28;20033;-57
2022/08/09 12:03:25;;;;;;;3.05;2.40;;;30.30;96.60;;;;;;5029929;28;20030;-58
2022/08/09 12:05:53;;;;;;;3.80;2.13;;;29.90;96.50;;;;;;5028193;28;20052;-57
2022/08/09 12:08:20;;;;;;;6.38;2.30;;;29.70;96.00;;;;;;5037521;28;20029;-58
2022/08/09 12:10:49;;;;;;;4.30;2.55;;;29.80;96.70;;;;;;5028869;28;20036;-56
2022/08/09 12:13:37;;;;;;;10.75;2.83;;;29.80;95.60;;;;;;5026662;28;20391;-58
2022/08/09 12:16:06;;;;;;;4.80;2.72;;;29.80;95.80;;;;;;5025979;28;20021;-57
2022/08/09 12:18:33;;;;;;;4.60;2.08;;;30.00;95.50;;;;;;5026155;28;20108;-57
2022/08/09 12:21:01;;;;;;;8.73;2.65;;;30.20;95.40;;;;;;5025011;28;20079;-58
2022/08/09 12:23:26;;;;;;;5.55;2.60;;;30.00;95.30;;;;;;5024752;28;20062;-58
2022/08/09 12:25:53;;;;;;;4.63;2.67;;;30.00;95.00;;;;;;5021071;28;20415;-57
2022/08/09 12:28:21;;;;;;;4.63;2.15;;;30.40;95.30;;;;;;5007177;28;20021;-55
2022/08/09 12:30:48;;;;;;;9.10;2.35;;;30.90;94.40;;;;;;5026462;28;20028;-59
2022/08/09 12:33:14;;;;;;;7.57;2.67;;;31.00;94.50;;;;;;5021880;28;20022;-57
2022/08/09 12:35:40;;;;;;;3.58;2.35;;;31.20;96.60;;;;;;5023950;28;20053;-60
2022/08/09 12:38:38;;;;;;;4.53;2.20;;;31.60;93.80;;;;;;5023981;28;20495;-57
2022/08/09 12:41:04;;;;;;;3.70;2.30;;;31.70;92.70;;;;;;4990343;28;20052;-58
2022/08/09 12:43:30;;;;;;;8.82;2.55;;;31.50;93.10;;;;;;5024749;28;20477;-59
2022/08/09 12:45:57;;;;;;;4.88;2.17;;;31.50;93.90;;;;;;5025236;28;20033;-59
2022/08/09 12:48:25;;;;;;;6.82;2.50;;;31.60;92.90;;;;;;5027868;28;20479;-58
2022/08/09 12:50:51;;;;;;;4.22;1.90;;;31.90;93.90;;;;;;5025053;28;20025;-56